Terminal Aerodrome Forecast
Issued by NWS

Home | Current Version | Previous Version | Text Only | Print | Product List | Glossary On
Versions: 1 2 3 4 5 6 7 8 9 10 11 12
000
FTUS44 KSJT 241100
TAFBBD
TAF
KBBD 241131Z 2412/2512 VRB02KT P6SM SKC
     FM241500 19005KT P6SM SKC
     FM250000 VRB03KT P6SM SKC=

USA.gov is the U.S. government's official web portal to all federal, state and local government web resources and services.